Flight Track Log - Related Links

Times and Time Zones

All times are in EST time to prevent confusion due to time zone crossing. See the WAV761 flight status page for this flight to view local times or setup timezone preferences in your user account.

Time Position Orientation Groundspeed Altitude Reporting Facility
EST Latitude Longitude Course Direction KTS MPH feet Rate Location/Type
Wed 10:23:56 PM 65.1333 -151.8000 100° East 140 161 3,300  Level Anchorage Center
Wed 10:24:56 PM 65.1333 -151.7167 90° East 130 150 4,000 744 Climbing Anchorage Center
Wed 10:25:57 PM 65.1333 -151.6167 90° East 140 161 4,800 694 Climbing Anchorage Center
Wed 10:26:57 PM 65.1167 -151.5167 112° Southeast 150 173 5,400 600 Climbing Anchorage Center
Wed 10:27:57 PM 65.1167 -151.4167 90° East 170 196 6,000 595 Climbing Anchorage Center
Wed 10:28:00 PM 65.1293 -151.4777 100° East  Level Estimated
Wed 10:28:58 PM 65.1167 -151.3000 90° East 170 196 6,600  Level Anchorage Center
Wed 10:29:00 PM 65.1212 -151.3730 100° East  Level FlightAware Approximate
Wed 10:29:58 PM 65.1000 -151.2000 112° Southeast 180 207 7,000  Level Anchorage Center
Wed 10:30:59 PM 65.1000 -151.0667 90° East 190 219 7,000  Level Anchorage Center
Wed 10:31:59 PM 65.0833 -150.9667 112° Southeast 180 207 7,000  Level Anchorage Center
Wed 10:32:59 PM 65.0833 -150.8333 90° East 190 219 7,000  Level Anchorage Center
Wed 10:33:59 PM 65.0667 -150.7167 109° East 180 207 7,000  Level Anchorage Center
Wed 10:35:00 PM 65.0667 -150.6000 90° East 190 219 7,000  Level Anchorage Center
Wed 10:36:00 PM 65.0500 -150.4833 109° East 180 207 7,000  Level Anchorage Center
Wed 10:37:01 PM 65.0333 -150.3667 109° East 180 207 7,000  Level Anchorage Center
Wed 10:38:01 PM 65.0167 -150.2500 109° East 180 207 7,000  Level Anchorage Center
Wed 10:39:01 PM 65.0167 -150.1167 90° East 190 219 7,000  Level Anchorage Center
Wed 10:40:02 PM 65.0000 -150.0000 109° East 180 207 7,000  Level Anchorage Center
Wed 10:41:02 PM 65.0000 -149.8833 90° East 180 207 7,000  Level Anchorage Center
Wed 10:42:02 PM 64.9833 -149.7667 109° East 190 219 7,000  Level Anchorage Center
Wed 10:43:03 PM 64.9833 -149.6333 90° East 180 207 7,000  Level Anchorage Center
Wed 10:44:03 PM 64.9667 -149.5167 109° East 190 219 7,000  Level Anchorage Center
Wed 10:46:00 PM 64.9479 -149.3152 102° East  Level FlightAware Approximate
Wed 10:53:00 PM 64.8759 -148.5977 108° East  Level FlightAware Approximate
Wed 10:54:00 PM 64.8635 -148.4966 101° East  Level FlightAware Approximate
Wed 10:55:00 PM 64.8545 -148.3933 102° East  Level FlightAware Approximate
Wed 10:56:00 PM 64.8455 -148.2901 102° East  Level FlightAware Approximate
Wed 10:57:00 PM 64.8364 -148.1869 102° East  Level FlightAware Approximate
Wed 10:58:00 PM 64.8272 -148.0838 102° East  Level FlightAware Approximate
Wed 10:59:00 PM 64.8179 -147.9809 102° East  Level FlightAware Approximate
Wed 11:00:00 PM 64.8044 -147.8807 109° East  Level FlightAware Approximate
Wed 11:01:00 PM 64.8000 -147.8500 109° East  Level FlightAware Approximate
Wed 11:02:00 PM 64.8151 -147.8564 109° East  Level Estimated
Wed 11:03:00 PM 64.8151 -147.8564 109° East  Level Estimated
Wed 11:04:00 PM 64.8151 -147.8564 109° East  Level Estimated
Wed 11:05:00 PM 64.8151 -147.8564 109° East  Level Estimated
Wed 11:06:00 PM 64.8151 -147.8564 109° East  Level Estimated
Wed 11:07:00 PM 64.8151 -147.8564 109° East  Level Estimated
Wed 11:08:00 PM 64.8151 -147.8564 109° East  Level Estimated
Wed 11:09:00 PM 64.8151 -147.8564 109° East  Level Estimated
Wed 11:10:00 PM 64.8151 -147.8564 109° East  Level Estimated
Wed 11:11:00 PM 64.8151 -147.8564 109° East  Level Estimated
Wed 11:12:00 PM 64.8151 -147.8564 109° East  Level Estimated
Wed 11:13:00 PM 64.8151 -147.8564 109° East  Level Estimated
Wed 11:14:00 PM 64.8151 -147.8564 109° East  Level Estimated
Wed 11:15:00 PM 64.8151 -147.8564 109° East  Level Estimated
Wed 11:16:00 PM 64.8151 -147.8564 109° East  Level Estimated
Wed 11:17:00 PM 64.8151 -147.8564 109° East  Level Estimated
Wed 11:18:00 PM 64.8151 -147.8564 109° East  Level Estimated

Login

Don't have an account? Register now (free) for customized features, flight alerts, and more!